createdAt,value
2023-01-17T00:02:08.321Z,3.87
2023-01-17T00:04:54.288Z,2.53
2023-01-17T00:07:41.096Z,1.20
2023-01-17T00:10:11.207Z,2.90
2023-01-17T00:12:40.642Z,4.90
2023-01-17T00:15:09.977Z,3.30
2023-01-17T00:17:37.800Z,5.23
2023-01-17T00:20:23.877Z,1.70
2023-01-17T00:23:17.708Z,2.03
2023-01-17T00:26:03.074Z,2.10
2023-01-17T00:28:33.068Z,3.53
2023-01-17T00:30:59.890Z,2.47
2023-01-17T00:33:26.823Z,1.83
2023-01-17T00:35:54.484Z,2.13
2023-01-17T00:38:22.821Z,1.70
2023-01-17T00:40:50.254Z,2.13
2023-01-17T00:43:37.496Z,3.10
2023-01-17T00:46:25.039Z,2.13
2023-01-17T00:49:10.680Z,2.47
2023-01-17T00:51:56.595Z,1.60
2023-01-17T00:54:42.313Z,1.80
2023-01-17T00:57:27.724Z,1.60
2023-01-17T01:00:13.159Z,7.23
2023-01-17T01:03:00.380Z,1.60
2023-01-17T01:05:45.826Z,1.63
2023-01-17T01:08:36.412Z,1.47
2023-01-17T01:11:24.396Z,1.47
2023-01-17T01:14:10.124Z,1.97
2023-01-17T01:16:55.562Z,2.43
2023-01-17T01:19:42.748Z,2.60
2023-01-17T01:22:28.630Z,2.90
2023-01-17T01:25:14.060Z,2.00
2023-01-17T01:27:59.555Z,1.70
2023-01-17T01:30:44.881Z,2.03
2023-01-17T01:33:19.368Z,1.50
2023-01-17T01:35:50.332Z,2.60
2023-01-17T01:38:18.446Z,2.43
2023-01-17T01:40:47.839Z,1.90
2023-01-17T01:43:17.737Z,1.30
2023-01-17T01:45:49.405Z,1.47
2023-01-17T01:48:34.704Z,2.03
2023-01-17T01:51:07.138Z,2.70
2023-01-17T01:53:38.632Z,2.03
2023-01-17T01:56:10.377Z,1.83
2023-01-17T01:58:39.455Z,4.30
2023-01-17T02:01:09.291Z,2.20
2023-01-17T02:03:38.536Z,4.30
2023-01-17T02:06:29.220Z,2.37
2023-01-17T02:08:59.782Z,2.23
2023-01-17T02:11:28.266Z,2.30
2023-01-17T02:13:56.087Z,1.90
2023-01-17T02:16:39.168Z,4.20
2023-01-17T02:19:34.469Z,2.03
2023-01-17T02:22:26.319Z,1.50
2023-01-17T02:25:12.065Z,5.17
2023-01-17T02:27:54.721Z,2.13
2023-01-17T02:30:46.509Z,1.50
2023-01-17T02:33:25.411Z,1.30
2023-01-17T02:36:05.107Z,1.73
2023-01-17T02:38:40.870Z,1.43
2023-01-17T02:41:14.566Z,3.60
2023-01-17T02:43:42.691Z,2.70
2023-01-17T02:46:11.954Z,3.10
2023-01-17T02:48:40.356Z,1.90
2023-01-17T02:51:34.088Z,2.73
2023-01-17T02:54:16.746Z,2.10
2023-01-17T02:56:54.884Z,4.70
2023-01-17T02:59:40.491Z,2.30
2023-01-17T03:02:22.175Z,1.90
2023-01-17T03:04:55.058Z,2.40
2023-01-17T03:07:26.907Z,4.63
2023-01-17T03:09:59.432Z,2.47
2023-01-17T03:12:28.966Z,2.27
2023-01-17T03:14:56.816Z,2.60
2023-01-17T03:17:31.093Z,1.93
2023-01-17T03:19:59.216Z,3.40
2023-01-17T03:22:27.031Z,4.13
2023-01-17T03:24:54.836Z,4.53
2023-01-17T03:27:22.701Z,1.73
2023-01-17T03:29:50.469Z,5.70
2023-01-17T03:32:18.305Z,2.50
2023-01-17T03:34:47.415Z,3.23
2023-01-17T03:37:15.256Z,2.20
2023-01-17T03:39:43.061Z,3.03
2023-01-17T03:42:10.908Z,2.33
2023-01-17T03:44:38.718Z,2.90
2023-01-17T03:47:06.563Z,2.23
2023-01-17T03:49:34.397Z,2.87
2023-01-17T03:52:03.555Z,2.47
2023-01-17T03:54:31.341Z,2.93
2023-01-17T03:56:59.140Z,2.20
2023-01-17T03:59:27.523Z,2.50
2023-01-17T04:01:55.431Z,6.03
2023-01-17T04:04:23.730Z,1.93
2023-01-17T04:06:51.506Z,1.50
2023-01-17T04:09:20.609Z,3.23
2023-01-17T04:11:50.752Z,2.27
2023-01-17T04:14:18.787Z,5.33
2023-01-17T04:16:46.822Z,2.90
2023-01-17T04:19:14.865Z,2.37
2023-01-17T04:21:42.667Z,2.30
2023-01-17T04:24:10.684Z,2.60
2023-01-17T04:26:39.803Z,1.83
2023-01-17T04:29:07.652Z,3.60
2023-01-17T04:31:35.647Z,3.00
2023-01-17T04:34:03.507Z,5.63
2023-01-17T04:36:31.450Z,2.60
2023-01-17T04:38:59.276Z,1.50
2023-01-17T04:41:27.041Z,2.80
2023-01-17T04:43:56.202Z,2.63
2023-01-17T04:46:24.116Z,5.23
2023-01-17T04:48:51.938Z,2.10
2023-01-17T04:51:19.735Z,3.40
2023-01-17T04:53:47.535Z,3.70
2023-01-17T04:56:15.299Z,2.47
2023-01-17T04:58:43.087Z,2.67
2023-01-17T05:01:12.416Z,5.63
2023-01-17T05:03:40.246Z,3.30
2023-01-17T05:06:08.112Z,2.10
2023-01-17T05:08:35.934Z,9.10
2023-01-17T05:11:03.788Z,3.73
2023-01-17T05:13:31.591Z,2.70
2023-01-17T05:15:59.673Z,2.70
2023-01-17T05:18:28.942Z,3.00
2023-01-17T05:21:02.734Z,7.60
2023-01-17T05:23:30.667Z,3.97
2023-01-17T05:25:58.529Z,1.93
2023-01-17T05:28:26.470Z,2.90
2023-01-17T05:30:54.311Z,3.30
2023-01-17T05:33:22.201Z,3.53
2023-01-17T05:35:51.369Z,5.23
2023-01-17T05:38:19.379Z,3.97
2023-01-17T05:40:47.187Z,6.73
2023-01-17T05:43:15.034Z,5.03
2023-01-17T05:45:42.814Z,6.75
2023-01-17T05:48:10.641Z,2.80
2023-01-17T05:50:39.343Z,3.13
2023-01-17T05:53:10.648Z,6.10
2023-01-17T05:55:39.291Z,4.33
2023-01-17T05:58:09.019Z,3.20
2023-01-17T06:00:37.838Z,4.57
2023-01-17T06:03:05.780Z,7.83
2023-01-17T06:05:33.607Z,10.20
2023-01-17T06:08:01.417Z,6.87
2023-01-17T06:10:30.567Z,4.27
2023-01-17T06:13:02.994Z,4.40
2023-01-17T06:15:30.819Z,5.60
2023-01-17T06:17:58.702Z,7.17
2023-01-17T06:20:27.322Z,3.80
2023-01-17T06:22:55.256Z,5.40
2023-01-17T06:25:23.069Z,4.20
2023-01-17T06:27:54.640Z,5.37
2023-01-17T06:30:22.709Z,4.00
2023-01-17T06:32:53.806Z,3.00
2023-01-17T06:35:21.656Z,2.23
2023-01-17T06:37:52.092Z,3.37
2023-01-17T06:40:20.123Z,2.33
2023-01-17T06:42:47.990Z,3.33
2023-01-17T06:45:17.547Z,3.43
2023-01-17T06:47:45.652Z,2.23
2023-01-17T06:50:15.060Z,5.50
2023-01-17T06:52:43.700Z,4.73
2023-01-17T06:55:11.909Z,2.63
2023-01-17T06:57:39.720Z,2.43
2023-01-17T07:00:09.347Z,3.80
2023-01-17T07:02:38.497Z,9.40
2023-01-17T07:05:08.548Z,5.60
2023-01-17T07:07:36.341Z,7.67
2023-01-17T07:10:04.969Z,7.03
2023-01-17T07:12:32.750Z,5.43
2023-01-17T07:15:00.528Z,4.93
2023-01-17T07:17:28.363Z,3.20
2023-01-17T07:19:57.535Z,4.60
2023-01-17T07:22:25.357Z,4.70
2023-01-17T07:24:53.508Z,8.73
2023-01-17T07:27:21.328Z,7.03
2023-01-17T07:29:49.662Z,3.60
2023-01-17T07:32:17.453Z,6.30
2023-01-17T07:34:45.231Z,4.97
2023-01-17T07:37:15.305Z,4.90
2023-01-17T07:39:43.426Z,11.17
2023-01-17T07:42:11.190Z,4.97
2023-01-17T07:44:41.436Z,4.00
2023-01-17T07:47:09.245Z,7.80
2023-01-17T07:49:37.077Z,11.10
2023-01-17T07:52:05.219Z,16.33
2023-01-17T07:54:34.401Z,38.43
2023-01-17T07:57:02.786Z,9.63
2023-01-17T07:59:30.737Z,14.30
2023-01-17T08:01:58.628Z,10.00
2023-01-17T08:04:27.103Z,11.67
2023-01-17T08:06:55.074Z,12.40
2023-01-17T08:09:23.008Z,10.60
2023-01-17T08:11:52.135Z,9.07
2023-01-17T08:14:20.008Z,5.63
2023-01-17T08:16:47.886Z,9.33
2023-01-17T08:19:16.738Z,5.50
2023-01-17T08:21:44.507Z,11.30
2023-01-17T08:24:13.567Z,12.23
2023-01-17T08:26:41.901Z,11.87
2023-01-17T08:29:11.112Z,9.80
2023-01-17T08:31:39.062Z,11.97
2023-01-17T08:34:06.918Z,9.80
2023-01-17T08:36:34.715Z,6.77
2023-01-17T08:39:02.504Z,8.63
2023-01-17T08:41:32.111Z,6.43
2023-01-17T08:43:59.893Z,6.20
2023-01-17T08:46:31.382Z,5.07
2023-01-17T08:49:02.612Z,6.10
2023-01-17T08:51:32.368Z,10.03
2023-01-17T08:54:00.546Z,11.40
2023-01-17T08:56:28.490Z,13.70
2023-01-17T08:58:56.344Z,9.73
2023-01-17T09:01:24.238Z,10.93
2023-01-17T09:03:53.512Z,11.13
2023-01-17T09:06:21.919Z,3.47
2023-01-17T09:08:52.426Z,7.00
2023-01-17T09:11:20.239Z,17.10
2023-01-17T09:13:48.112Z,13.33
2023-01-17T09:16:15.965Z,20.20
2023-01-17T09:18:43.833Z,12.40
2023-01-17T09:21:14.675Z,8.20
2023-01-17T09:23:43.196Z,8.00
2023-01-17T09:26:19.635Z,11.13
2023-01-17T09:28:47.585Z,9.27
2023-01-17T09:31:17.501Z,11.20
2023-01-17T09:33:45.839Z,9.70
2023-01-17T09:36:15.025Z,10.27
2023-01-17T09:38:43.259Z,9.80
2023-01-17T09:41:30.079Z,32.20
2023-01-17T09:44:03.674Z,23.07
2023-01-17T09:46:38.487Z,16.33
2023-01-17T09:49:10.645Z,13.93
2023-01-17T09:51:40.321Z,12.57
2023-01-17T09:54:18.926Z,8.33
2023-01-17T09:56:56.606Z,8.13
2023-01-17T09:59:35.270Z,8.20
2023-01-17T10:02:14.507Z,13.07
2023-01-17T10:04:55.520Z,7.70
2023-01-17T10:07:37.244Z,5.70
2023-01-17T10:10:16.104Z,6.87
2023-01-17T10:12:51.826Z,5.97
2023-01-17T10:15:34.849Z,7.87
2023-01-17T10:18:11.357Z,5.17
2023-01-17T10:20:47.497Z,4.57
2023-01-17T10:23:31.215Z,6.27
2023-01-17T10:26:02.661Z,5.17
2023-01-17T10:28:35.381Z,3.43
2023-01-17T10:31:07.548Z,8.23
2023-01-17T10:33:41.345Z,5.47
2023-01-17T10:36:15.708Z,9.20
2023-01-17T10:38:48.407Z,9.83
2023-01-17T10:41:21.886Z,9.80
2023-01-17T10:43:58.437Z,2.37
2023-01-17T10:46:32.561Z,4.97
2023-01-17T10:49:01.633Z,2.77
2023-01-17T10:51:49.730Z,3.23
2023-01-17T10:54:30.180Z,6.87
2023-01-17T10:56:59.215Z,3.83
2023-01-17T10:59:31.761Z,5.23
2023-01-17T11:02:00.687Z,6.07
2023-01-17T11:04:35.810Z,5.90
2023-01-17T11:07:15.272Z,6.20
2023-01-17T11:09:45.980Z,6.20
2023-01-17T11:12:19.864Z,5.23
2023-01-17T11:15:02.891Z,9.13
2023-01-17T11:17:31.493Z,7.50
2023-01-17T11:20:19.920Z,11.10
2023-01-17T11:23:02.252Z,6.00
2023-01-17T11:25:34.290Z,6.40
2023-01-17T11:28:06.854Z,4.90
2023-01-17T11:30:34.976Z,5.00
2023-01-17T11:33:06.081Z,4.07
2023-01-17T11:35:36.721Z,4.07
2023-01-17T11:38:07.549Z,4.33
2023-01-17T11:40:41.281Z,5.23
2023-01-17T11:43:26.398Z,5.47
2023-01-17T11:46:06.501Z,5.00
2023-01-17T11:48:37.548Z,8.10
2023-01-17T11:51:15.279Z,4.83
2023-01-17T11:53:48.075Z,4.70
2023-01-17T11:56:29.973Z,5.87
2023-01-17T11:59:19.806Z,6.20
2023-01-17T12:01:58.388Z,5.43
2023-01-17T12:04:30.957Z,8.37
2023-01-17T12:07:17.467Z,4.70
2023-01-17T12:09:53.043Z,4.10
2023-01-17T12:12:50.515Z,5.53
2023-01-17T12:15:28.265Z,5.17
2023-01-17T12:18:14.480Z,5.53
2023-01-17T12:20:52.403Z,4.80
2023-01-17T12:23:34.295Z,5.93
2023-01-17T12:26:20.709Z,4.77
2023-01-17T12:29:11.125Z,4.60
2023-01-17T12:31:46.397Z,3.43
2023-01-17T12:34:25.277Z,5.57
2023-01-17T12:36:57.749Z,7.70
2023-01-17T12:39:32.021Z,8.77
2023-01-17T12:42:05.490Z,6.83
2023-01-17T12:44:50.101Z,6.00
2023-01-17T12:47:20.697Z,9.93
2023-01-17T12:50:03.827Z,4.50
2023-01-17T12:52:43.458Z,6.43
2023-01-17T12:55:17.819Z,6.60
2023-01-17T12:57:52.832Z,3.10
2023-01-17T13:00:25.511Z,5.20
2023-01-17T13:02:58.530Z,5.33
2023-01-17T13:05:32.450Z,6.23
2023-01-17T13:08:07.486Z,4.00
2023-01-17T13:10:43.406Z,7.10
2023-01-17T13:13:20.221Z,7.10
2023-01-17T13:15:52.081Z,5.40
2023-01-17T13:18:25.638Z,7.33
2023-01-17T13:21:14.755Z,5.70
2023-01-17T13:24:05.963Z,6.10
2023-01-17T13:26:45.319Z,5.50
2023-01-17T13:29:22.155Z,4.33
2023-01-17T13:31:57.865Z,2.90
2023-01-17T13:34:41.662Z,2.60
2023-01-17T13:37:42.412Z,6.43
2023-01-17T13:40:26.939Z,2.23
2023-01-17T13:42:59.621Z,7.70
2023-01-17T13:45:30.529Z,1.80
2023-01-17T13:48:27.543Z,2.27
2023-01-17T13:50:56.585Z,2.23
2023-01-17T13:53:58.954Z,2.27
2023-01-17T13:56:35.078Z,2.93
2023-01-17T13:59:34.620Z,1.80
2023-01-17T14:02:02.572Z,1.90
2023-01-17T14:05:10.174Z,3.60
2023-01-17T14:07:46.717Z,2.20
2023-01-17T14:10:34.620Z,3.30
2023-01-17T14:13:03.393Z,6.50
2023-01-17T14:15:34.438Z,3.97
2023-01-17T14:18:03.911Z,4.77
2023-01-17T14:21:06.902Z,4.37
2023-01-17T14:24:04.367Z,5.33
2023-01-17T14:26:53.482Z,5.13
2023-01-17T14:29:45.454Z,5.53
2023-01-17T14:32:15.585Z,5.70
2023-01-17T14:34:45.323Z,2.47
2023-01-17T14:37:25.141Z,3.23
2023-01-17T14:39:54.492Z,3.63
2023-01-17T14:42:25.179Z,5.83
2023-01-17T14:45:00.204Z,2.13
2023-01-17T14:47:33.098Z,1.90
2023-01-17T14:50:21.495Z,1.83
2023-01-17T14:52:49.458Z,2.27
2023-01-17T14:55:20.279Z,1.50
2023-01-17T14:57:55.894Z,2.67
2023-01-17T15:00:25.446Z,2.60
2023-01-17T15:02:54.773Z,1.70
2023-01-17T15:05:24.793Z,3.33
2023-01-17T15:07:54.588Z,2.20
2023-01-17T15:10:27.733Z,2.80
2023-01-17T15:12:57.410Z,3.30
2023-01-17T15:15:29.836Z,4.10
2023-01-17T15:18:19.119Z,2.90
2023-01-17T15:20:51.715Z,2.37
2023-01-17T15:23:21.893Z,2.63
2023-01-17T15:25:53.403Z,2.57
2023-01-17T15:28:21.433Z,2.50
2023-01-17T15:31:07.188Z,3.90
2023-01-17T15:33:36.482Z,2.87
2023-01-17T15:36:06.530Z,3.13
2023-01-17T15:38:39.249Z,2.40
2023-01-17T15:41:14.591Z,5.10
2023-01-17T15:43:45.094Z,5.40
2023-01-17T15:46:30.413Z,3.00
2023-01-17T15:49:17.941Z,3.77
2023-01-17T15:51:52.418Z,2.60
2023-01-17T15:54:44.329Z,3.03
2023-01-17T15:57:26.060Z,2.90
2023-01-17T16:00:00.503Z,3.20
2023-01-17T16:02:37.255Z,2.93
2023-01-17T16:05:41.799Z,11.30
2023-01-17T16:08:29.510Z,4.70
2023-01-17T16:11:02.035Z,5.47
2023-01-17T16:13:33.516Z,3.90
2023-01-17T16:16:25.847Z,5.57
2023-01-17T16:19:00.879Z,8.73
2023-01-17T16:21:30.114Z,2.83
2023-01-17T16:23:59.240Z,8.77
2023-01-17T16:26:28.995Z,3.00
2023-01-17T16:28:58.236Z,8.20
2023-01-17T16:31:26.286Z,5.00
2023-01-17T16:33:54.131Z,4.10
2023-01-17T16:36:22.902Z,5.30
2023-01-17T16:38:52.350Z,5.07
2023-01-17T16:41:20.724Z,4.43
2023-01-17T16:44:00.184Z,5.60
2023-01-17T16:46:28.581Z,3.40
2023-01-17T16:48:56.722Z,6.83
2023-01-17T16:51:24.521Z,9.63
2023-01-17T16:53:52.337Z,5.77
2023-01-17T16:56:21.137Z,4.63
2023-01-17T16:58:48.966Z,5.43
2023-01-17T17:01:21.050Z,4.80
2023-01-17T17:03:49.473Z,5.90
2023-01-17T17:06:17.630Z,4.60
2023-01-17T17:08:45.952Z,6.00
2023-01-17T17:11:16.469Z,4.77
2023-01-17T17:13:45.526Z,5.20
2023-01-17T17:16:15.803Z,6.67
2023-01-17T17:18:46.877Z,8.40
2023-01-17T17:21:15.110Z,8.63
2023-01-17T17:23:42.923Z,8.53
2023-01-17T17:26:10.821Z,6.03
2023-01-17T17:28:38.846Z,4.90
2023-01-17T17:31:10.358Z,7.07
2023-01-17T17:33:38.683Z,7.23
2023-01-17T17:36:10.684Z,9.20
2023-01-17T17:38:50.697Z,9.73
2023-01-17T17:41:20.352Z,10.93
2023-01-17T17:43:48.319Z,9.10
2023-01-17T17:46:16.592Z,8.23
2023-01-17T17:48:44.428Z,9.83
2023-01-17T17:51:24.890Z,9.57
2023-01-17T17:53:54.518Z,7.80
2023-01-17T17:56:23.145Z,9.67
2023-01-17T17:58:51.391Z,10.57
2023-01-17T18:01:19.399Z,10.00
2023-01-17T18:03:47.265Z,13.80
2023-01-17T18:06:17.354Z,13.93
2023-01-17T18:08:47.012Z,13.73
2023-01-17T18:11:18.456Z,16.03
2023-01-17T18:13:50.285Z,15.07
2023-01-17T18:16:20.773Z,13.57
2023-01-17T18:18:51.056Z,12.20
2023-01-17T18:21:23.588Z,13.90
2023-01-17T18:23:54.505Z,14.80
2023-01-17T18:26:24.360Z,11.43
2023-01-17T18:28:53.916Z,12.67
2023-01-17T18:31:21.972Z,10.73
2023-01-17T18:33:49.861Z,10.73
2023-01-17T18:36:17.695Z,11.60
2023-01-17T18:38:47.004Z,10.70
2023-01-17T18:41:17.960Z,12.90
2023-01-17T18:43:46.446Z,12.30
2023-01-17T18:46:14.563Z,14.47
2023-01-17T18:48:42.887Z,12.50
2023-01-17T18:51:12.360Z,10.53
2023-01-17T18:53:41.446Z,10.47
2023-01-17T18:56:11.360Z,10.17
2023-01-17T18:58:41.898Z,11.20
2023-01-17T19:01:11.697Z,13.30
2023-01-17T19:03:40.963Z,12.47
2023-01-17T19:06:10.656Z,11.50
2023-01-17T19:08:40.116Z,12.40
2023-01-17T19:11:08.589Z,11.03
2023-01-17T19:13:37.906Z,10.07
2023-01-17T19:16:10.001Z,11.00
2023-01-17T19:18:37.857Z,15.20
2023-01-17T19:21:08.838Z,15.53
2023-01-17T19:23:37.812Z,17.27
2023-01-17T19:26:08.191Z,17.13
2023-01-17T19:28:38.902Z,20.97
2023-01-17T19:31:09.632Z,16.57
2023-01-17T19:33:39.271Z,15.50
2023-01-17T19:36:10.455Z,15.23
2023-01-17T19:38:39.111Z,17.27
2023-01-17T19:41:12.158Z,16.90
2023-01-17T19:43:41.375Z,15.37
2023-01-17T19:46:12.079Z,18.30
2023-01-17T19:48:40.733Z,17.03
2023-01-17T19:51:10.384Z,20.50
2023-01-17T19:53:39.360Z,18.90
2023-01-17T19:56:08.978Z,20.93
2023-01-17T19:58:37.567Z,20.83
2023-01-17T20:01:07.265Z,16.83
2023-01-17T20:03:37.236Z,19.77
2023-01-17T20:06:05.681Z,16.83
2023-01-17T20:08:34.390Z,19.37
2023-01-17T20:11:03.329Z,18.13
2023-01-17T20:13:31.165Z,16.60
2023-01-17T20:16:03.191Z,15.60
2023-01-17T20:18:31.038Z,16.23
2023-01-17T20:21:05.051Z,16.77
2023-01-17T20:23:36.042Z,16.00
2023-01-17T20:26:04.050Z,14.50
2023-01-17T20:28:34.197Z,14.67
2023-01-17T20:31:06.605Z,17.37
2023-01-17T20:33:35.121Z,15.60
2023-01-17T20:36:10.667Z,14.90
2023-01-17T20:38:44.575Z,14.60
2023-01-17T20:41:14.168Z,15.00
2023-01-17T20:43:42.641Z,13.20
2023-01-17T20:46:11.053Z,15.50
2023-01-17T20:48:44.193Z,13.77
2023-01-17T20:51:14.225Z,12.17
2023-01-17T20:53:43.324Z,11.60
2023-01-17T20:56:12.795Z,13.63
2023-01-17T20:58:40.796Z,10.10
2023-01-17T21:01:09.324Z,7.87
2023-01-17T21:03:38.040Z,6.10
2023-01-17T21:06:08.198Z,3.90
2023-01-17T21:08:39.232Z,7.60
2023-01-17T21:11:08.580Z,3.33
2023-01-17T21:13:36.434Z,3.30
2023-01-17T21:16:04.640Z,3.03
2023-01-17T21:18:33.415Z,2.13
2023-01-17T21:21:05.659Z,2.20
2023-01-17T21:23:34.255Z,2.20
2023-01-17T21:26:03.666Z,2.13
2023-01-17T21:28:34.766Z,2.00
2023-01-17T21:31:20.399Z,1.93
2023-01-17T21:33:48.573Z,2.03
2023-01-17T21:36:16.723Z,1.50
2023-01-17T21:38:49.537Z,1.83
2023-01-17T21:41:19.318Z,1.43
2023-01-17T21:43:47.641Z,1.30
2023-01-17T21:46:15.545Z,1.40
2023-01-17T21:48:44.412Z,1.83
2023-01-17T21:51:12.222Z,1.83
2023-01-17T21:53:40.760Z,1.90
2023-01-17T21:56:44.291Z,1.60
2023-01-17T21:59:13.405Z,1.57
2023-01-17T22:01:41.293Z,1.70
2023-01-17T22:04:11.669Z,2.47
2023-01-17T22:06:39.652Z,2.53
2023-01-17T22:09:08.340Z,1.63
2023-01-17T22:11:37.720Z,1.60
2023-01-17T22:14:05.928Z,1.80
2023-01-17T22:16:35.134Z,1.67
2023-01-17T22:19:02.911Z,2.50
2023-01-17T22:21:30.705Z,1.83
2023-01-17T22:24:00.208Z,2.50
2023-01-17T22:26:31.409Z,1.80
2023-01-17T22:29:02.264Z,1.57
2023-01-17T22:31:30.158Z,1.87
2023-01-17T22:34:00.955Z,1.60
2023-01-17T22:36:29.004Z,3.10
2023-01-17T22:38:56.871Z,2.00
2023-01-17T22:41:27.956Z,1.63
2023-01-17T22:43:58.548Z,1.50
2023-01-17T22:46:31.027Z,1.40
2023-01-17T22:49:00.837Z,2.10
2023-01-17T22:51:29.826Z,1.53
2023-01-17T22:53:59.745Z,1.53
2023-01-17T22:56:30.044Z,1.87
2023-01-17T22:58:58.994Z,1.77
2023-01-17T23:01:28.418Z,1.60
2023-01-17T23:03:58.422Z,2.17
2023-01-17T23:06:30.280Z,1.87
2023-01-17T23:08:59.485Z,2.57
2023-01-17T23:11:46.001Z,1.97
2023-01-17T23:14:17.194Z,1.80
2023-01-17T23:17:05.369Z,2.30
2023-01-17T23:19:35.377Z,2.97
2023-01-17T23:22:19.295Z,1.50
2023-01-17T23:24:50.173Z,1.80
2023-01-17T23:27:38.337Z,1.53
2023-01-17T23:30:08.933Z,2.03
2023-01-17T23:32:36.724Z,1.70
2023-01-17T23:35:04.873Z,5.23
2023-01-17T23:37:51.485Z,1.97
2023-01-17T23:40:19.782Z,1.80
2023-01-17T23:43:05.437Z,1.50
2023-01-17T23:45:35.678Z,1.43
2023-01-17T23:48:05.451Z,2.03
2023-01-17T23:50:34.035Z,1.70
2023-01-17T23:53:06.937Z,3.87
2023-01-17T23:55:37.046Z,1.73
2023-01-17T23:58:05.572Z,1.40
